sensor_id;sensor_type;location;lat;lon;timestamp;P1;durP1;ratioP1;P2;durP2;ratioP2
59984;SDS011;45843;47.532;18.660;2023-04-10T00:00:56;0.13;;;0.13;;
59984;SDS011;45843;47.532;18.660;2023-04-10T00:03:23;0.20;;;0.20;;
59984;SDS011;45843;47.532;18.660;2023-04-10T00:05:50;0.20;;;0.20;;
59984;SDS011;45843;47.532;18.660;2023-04-10T00:08:20;0.30;;;0.30;;
59984;SDS011;45843;47.532;18.660;2023-04-10T00:10:46;0.20;;;0.20;;
59984;SDS011;45843;47.532;18.660;2023-04-10T00:13:13;0.20;;;0.20;;
59984;SDS011;45843;47.532;18.660;2023-04-10T00:15:40;0.30;;;0.30;;
59984;SDS011;45843;47.532;18.660;2023-04-10T00:18:06;0.10;;;0.10;;
59984;SDS011;45843;47.532;18.660;2023-04-10T00:20:33;0.20;;;0.20;;
59984;SDS011;45843;47.532;18.660;2023-04-10T00:22:59;0.28;;;0.28;;
59984;SDS011;45843;47.532;18.660;2023-04-10T00:25:26;0.30;;;0.30;;
59984;SDS011;45843;47.532;18.660;2023-04-10T00:27:52;0.20;;;0.20;;
59984;SDS011;45843;47.532;18.660;2023-04-10T00:30:19;0.30;;;0.30;;
59984;SDS011;45843;47.532;18.660;2023-04-10T00:32:46;0.30;;;0.30;;
59984;SDS011;45843;47.532;18.660;2023-04-10T00:35:12;0.20;;;0.20;;
59984;SDS011;45843;47.532;18.660;2023-04-10T00:37:39;0.10;;;0.10;;
59984;SDS011;45843;47.532;18.660;2023-04-10T00:40:05;0.10;;;0.10;;
59984;SDS011;45843;47.532;18.660;2023-04-10T00:42:32;0.20;;;0.20;;
59984;SDS011;45843;47.532;18.660;2023-04-10T00:45:01;0.20;;;0.20;;
59984;SDS011;45843;47.532;18.660;2023-04-10T00:47:28;0.20;;;0.20;;
59984;SDS011;45843;47.532;18.660;2023-04-10T00:49:55;0.20;;;0.20;;
59984;SDS011;45843;47.532;18.660;2023-04-10T00:53:01;0.20;;;0.20;;
59984;SDS011;45843;47.532;18.660;2023-04-10T00:55:28;0.20;;;0.20;;
59984;SDS011;45843;47.532;18.660;2023-04-10T00:57:54;0.30;;;0.30;;
59984;SDS011;45843;47.532;18.660;2023-04-10T01:00:21;0.20;;;0.20;;
59984;SDS011;45843;47.532;18.660;2023-04-10T01:02:47;0.20;;;0.20;;
59984;SDS011;45843;47.532;18.660;2023-04-10T01:05:14;0.10;;;0.10;;
59984;SDS011;45843;47.532;18.660;2023-04-10T01:07:57;0.10;;;0.10;;
59984;SDS011;45843;47.532;18.660;2023-04-10T01:12:57;0.10;;;0.10;;
59984;SDS011;45843;47.532;18.660;2023-04-10T01:15:25;0.30;;;0.30;;
59984;SDS011;45843;47.532;18.660;2023-04-10T01:20:21;0.20;;;0.20;;
59984;SDS011;45843;47.532;18.660;2023-04-10T01:25:44;0.10;;;0.10;;
59984;SDS011;45843;47.532;18.660;2023-04-10T01:30:40;0.30;;;0.30;;
59984;SDS011;45843;47.532;18.660;2023-04-10T01:33:08;0.20;;;0.20;;
59984;SDS011;45843;47.532;18.660;2023-04-10T01:36:16;0.30;;;0.30;;
59984;SDS011;45843;47.532;18.660;2023-04-10T01:39:20;0.17;;;0.17;;
59984;SDS011;45843;47.532;18.660;2023-04-10T01:42:27;0.20;;;0.20;;
59984;SDS011;45843;47.532;18.660;2023-04-10T01:45:32;0.20;;;0.20;;
59984;SDS011;45843;47.532;18.660;2023-04-10T01:48:38;0.10;;;0.10;;
59984;SDS011;45843;47.532;18.660;2023-04-10T01:51:44;0.13;;;0.13;;
59984;SDS011;45843;47.532;18.660;2023-04-10T01:54:51;0.28;;;0.28;;
59984;SDS011;45843;47.532;18.660;2023-04-10T01:57:18;0.20;;;0.20;;
59984;SDS011;45843;47.532;18.660;2023-04-10T02:00:24;0.20;;;0.20;;
59984;SDS011;45843;47.532;18.660;2023-04-10T02:03:31;0.20;;;0.20;;
59984;SDS011;45843;47.532;18.660;2023-04-10T02:06:42;0.20;;;0.20;;
59984;SDS011;45843;47.532;18.660;2023-04-10T02:12:40;0.20;;;0.20;;
59984;SDS011;45843;47.532;18.660;2023-04-10T02:15:45;0.30;;;0.30;;
59984;SDS011;45843;47.532;18.660;2023-04-10T02:18:51;0.20;;;0.20;;
59984;SDS011;45843;47.532;18.660;2023-04-10T02:21:57;0.10;;;0.10;;
59984;SDS011;45843;47.532;18.660;2023-04-10T02:25:03;0.20;;;0.20;;
59984;SDS011;45843;47.532;18.660;2023-04-10T02:28:09;0.20;;;0.20;;
59984;SDS011;45843;47.532;18.660;2023-04-10T02:31:16;0.20;;;0.20;;
59984;SDS011;45843;47.532;18.660;2023-04-10T02:34:22;0.20;;;0.20;;
59984;SDS011;45843;47.532;18.660;2023-04-10T02:37:28;0.20;;;0.20;;
59984;SDS011;45843;47.532;18.660;2023-04-10T02:40:34;0.20;;;0.20;;
59984;SDS011;45843;47.532;18.660;2023-04-10T02:43:40;0.10;;;0.10;;
59984;SDS011;45843;47.532;18.660;2023-04-10T02:46:47;0.20;;;0.20;;
59984;SDS011;45843;47.532;18.660;2023-04-10T02:54:46;0.20;;;0.20;;
59984;SDS011;45843;47.532;18.660;2023-04-10T02:57:12;0.20;;;0.20;;
59984;SDS011;45843;47.532;18.660;2023-04-10T02:59:39;0.30;;;0.30;;
59984;SDS011;45843;47.532;18.660;2023-04-10T03:02:05;0.13;;;0.13;;
59984;SDS011;45843;47.532;18.660;2023-04-10T03:04:32;0.10;;;0.10;;
59984;SDS011;45843;47.532;18.660;2023-04-10T03:06:58;0.20;;;0.20;;
59984;SDS011;45843;47.532;18.660;2023-04-10T03:09:25;0.10;;;0.10;;
59984;SDS011;45843;47.532;18.660;2023-04-10T03:11:51;0.10;;;0.10;;
59984;SDS011;45843;47.532;18.660;2023-04-10T03:14:17;0.20;;;0.20;;
59984;SDS011;45843;47.532;18.660;2023-04-10T03:17:24;0.20;;;0.20;;
59984;SDS011;45843;47.532;18.660;2023-04-10T03:20:31;0.20;;;0.20;;
59984;SDS011;45843;47.532;18.660;2023-04-10T03:23:36;0.28;;;0.28;;
59984;SDS011;45843;47.532;18.660;2023-04-10T03:26:43;0.20;;;0.20;;
59984;SDS011;45843;47.532;18.660;2023-04-10T03:29:49;0.20;;;0.20;;
59984;SDS011;45843;47.532;18.660;2023-04-10T03:32:55;0.20;;;0.20;;
59984;SDS011;45843;47.532;18.660;2023-04-10T03:36:04;0.15;;;0.15;;
59984;SDS011;45843;47.532;18.660;2023-04-10T03:39:08;0.25;;;0.25;;
59984;SDS011;45843;47.532;18.660;2023-04-10T03:42:14;0.20;;;0.20;;
59984;SDS011;45843;47.532;18.660;2023-04-10T03:45:20;0.10;;;0.10;;
59984;SDS011;45843;47.532;18.660;2023-04-10T03:48:27;0.25;;;0.25;;
59984;SDS011;45843;47.532;18.660;2023-04-10T03:51:33;0.20;;;0.20;;
59984;SDS011;45843;47.532;18.660;2023-04-10T03:54:39;0.20;;;0.20;;
59984;SDS011;45843;47.532;18.660;2023-04-10T03:57:06;0.20;;;0.20;;
59984;SDS011;45843;47.532;18.660;2023-04-10T03:59:33;0.13;;;0.13;;
59984;SDS011;45843;47.532;18.660;2023-04-10T04:01:59;0.20;;;0.20;;
59984;SDS011;45843;47.532;18.660;2023-04-10T04:04:26;0.30;;;0.30;;
59984;SDS011;45843;47.532;18.660;2023-04-10T04:07:32;0.20;;;0.20;;
59984;SDS011;45843;47.532;18.660;2023-04-10T04:10:38;0.20;;;0.20;;
59984;SDS011;45843;47.532;18.660;2023-04-10T04:13:44;0.20;;;0.20;;
59984;SDS011;45843;47.532;18.660;2023-04-10T04:16:50;0.20;;;0.20;;
59984;SDS011;45843;47.532;18.660;2023-04-10T04:19:57;0.10;;;0.10;;
59984;SDS011;45843;47.532;18.660;2023-04-10T04:23:03;0.20;;;0.20;;
59984;SDS011;45843;47.532;18.660;2023-04-10T04:26:09;0.10;;;0.10;;
59984;SDS011;45843;47.532;18.660;2023-04-10T04:29:14;0.20;;;0.20;;
59984;SDS011;45843;47.532;18.660;2023-04-10T04:32:20;0.20;;;0.20;;
59984;SDS011;45843;47.532;18.660;2023-04-10T04:35:27;0.20;;;0.20;;
59984;SDS011;45843;47.532;18.660;2023-04-10T04:38:33;0.30;;;0.30;;
59984;SDS011;45843;47.532;18.660;2023-04-10T04:41:39;0.20;;;0.20;;
59984;SDS011;45843;47.532;18.660;2023-04-10T04:44:45;0.20;;;0.20;;
59984;SDS011;45843;47.532;18.660;2023-04-10T04:47:52;0.20;;;0.20;;
59984;SDS011;45843;47.532;18.660;2023-04-10T04:50:58;0.20;;;0.20;;
59984;SDS011;45843;47.532;18.660;2023-04-10T04:54:04;0.20;;;0.20;;
59984;SDS011;45843;47.532;18.660;2023-04-10T04:56:31;0.30;;;0.30;;
59984;SDS011;45843;47.532;18.660;2023-04-10T04:58:57;0.20;;;0.20;;
59984;SDS011;45843;47.532;18.660;2023-04-10T05:01:23;0.20;;;0.20;;
59984;SDS011;45843;47.532;18.660;2023-04-10T05:03:57;0.30;;;0.30;;
59984;SDS011;45843;47.532;18.660;2023-04-10T05:06:24;0.25;;;0.25;;
59984;SDS011;45843;47.532;18.660;2023-04-10T05:08:50;0.28;;;0.28;;
59984;SDS011;45843;47.532;18.660;2023-04-10T05:11:17;0.20;;;0.20;;
59984;SDS011;45843;47.532;18.660;2023-04-10T05:13:44;0.20;;;0.20;;
59984;SDS011;45843;47.532;18.660;2023-04-10T05:16:50;0.30;;;0.30;;
59984;SDS011;45843;47.532;18.660;2023-04-10T05:19:56;0.20;;;0.20;;
59984;SDS011;45843;47.532;18.660;2023-04-10T05:23:02;0.22;;;0.22;;
59984;SDS011;45843;47.532;18.660;2023-04-10T05:26:07;0.22;;;0.22;;
59984;SDS011;45843;47.532;18.660;2023-04-10T05:29:14;0.20;;;0.20;;
59984;SDS011;45843;47.532;18.660;2023-04-10T05:32:20;0.22;;;0.22;;
59984;SDS011;45843;47.532;18.660;2023-04-10T05:35:26;0.20;;;0.20;;
59984;SDS011;45843;47.532;18.660;2023-04-10T05:38:32;0.20;;;0.20;;
59984;SDS011;45843;47.532;18.660;2023-04-10T05:41:39;0.20;;;0.20;;
59984;SDS011;45843;47.532;18.660;2023-04-10T05:44:45;0.25;;;0.25;;
59984;SDS011;45843;47.532;18.660;2023-04-10T05:47:51;0.20;;;0.20;;
59984;SDS011;45843;47.532;18.660;2023-04-10T05:50:57;0.10;;;0.10;;
59984;SDS011;45843;47.532;18.660;2023-04-10T05:54:04;0.22;;;0.22;;
59984;SDS011;45843;47.532;18.660;2023-04-10T05:56:30;0.20;;;0.20;;
59984;SDS011;45843;47.532;18.660;2023-04-10T05:58:57;0.25;;;0.25;;
59984;SDS011;45843;47.532;18.660;2023-04-10T06:01:23;0.20;;;0.20;;
59984;SDS011;45843;47.532;18.660;2023-04-10T06:03:50;0.20;;;0.20;;
59984;SDS011;45843;47.532;18.660;2023-04-10T06:06:19;0.20;;;0.20;;
59984;SDS011;45843;47.532;18.660;2023-04-10T06:08:46;0.20;;;0.20;;
59984;SDS011;45843;47.532;18.660;2023-04-10T06:11:13;0.20;;;0.20;;
59984;SDS011;45843;47.532;18.660;2023-04-10T06:13:40;0.20;;;0.20;;
59984;SDS011;45843;47.532;18.660;2023-04-10T06:16:06;0.10;;;0.10;;
59984;SDS011;45843;47.532;18.660;2023-04-10T06:18:33;0.20;;;0.20;;
59984;SDS011;45843;47.532;18.660;2023-04-10T06:20:59;0.20;;;0.20;;
59984;SDS011;45843;47.532;18.660;2023-04-10T06:24:06;0.20;;;0.20;;
59984;SDS011;45843;47.532;18.660;2023-04-10T06:27:15;0.15;;;0.15;;
59984;SDS011;45843;47.532;18.660;2023-04-10T06:30:21;0.17;;;0.17;;
59984;SDS011;45843;47.532;18.660;2023-04-10T06:33:27;0.20;;;0.20;;
59984;SDS011;45843;47.532;18.660;2023-04-10T06:36:37;0.10;;;0.10;;
59984;SDS011;45843;47.532;18.660;2023-04-10T06:39:43;0.10;;;0.10;;
59984;SDS011;45843;47.532;18.660;2023-04-10T06:42:49;0.20;;;0.20;;
59984;SDS011;45843;47.532;18.660;2023-04-10T06:45:55;0.10;;;0.10;;
59984;SDS011;45843;47.532;18.660;2023-04-10T06:49:02;0.10;;;0.10;;
59984;SDS011;45843;47.532;18.660;2023-04-10T06:52:08;0.20;;;0.20;;
59984;SDS011;45843;47.532;18.660;2023-04-10T06:55:14;0.10;;;0.10;;
59984;SDS011;45843;47.532;18.660;2023-04-10T06:57:41;0.20;;;0.20;;
59984;SDS011;45843;47.532;18.660;2023-04-10T07:00:08;0.20;;;0.20;;
59984;SDS011;45843;47.532;18.660;2023-04-10T07:03:14;0.10;;;0.10;;
59984;SDS011;45843;47.532;18.660;2023-04-10T07:06:19;0.10;;;0.10;;
59984;SDS011;45843;47.532;18.660;2023-04-10T07:09:25;0.10;;;0.10;;
59984;SDS011;45843;47.532;18.660;2023-04-10T07:12:32;0.10;;;0.10;;
59984;SDS011;45843;47.532;18.660;2023-04-10T07:15:38;0.20;;;0.20;;
59984;SDS011;45843;47.532;18.660;2023-04-10T07:18:44;0.20;;;0.20;;
59984;SDS011;45843;47.532;18.660;2023-04-10T07:21:50;0.00;;;0.00;;
59984;SDS011;45843;47.532;18.660;2023-04-10T07:24:58;0.10;;;0.10;;
59984;SDS011;45843;47.532;18.660;2023-04-10T07:28:04;0.10;;;0.10;;
59984;SDS011;45843;47.532;18.660;2023-04-10T07:31:10;0.20;;;0.20;;
59984;SDS011;45843;47.532;18.660;2023-04-10T07:34:15;0.10;;;0.10;;
59984;SDS011;45843;47.532;18.660;2023-04-10T07:37:21;0.10;;;0.10;;
59984;SDS011;45843;47.532;18.660;2023-04-10T07:40:28;0.25;;;0.25;;
59984;SDS011;45843;47.532;18.660;2023-04-10T07:43:33;0.10;;;0.10;;
59984;SDS011;45843;47.532;18.660;2023-04-10T07:46:03;0.10;;;0.10;;
59984;SDS011;45843;47.532;18.660;2023-04-10T07:48:29;0.10;;;0.10;;
59984;SDS011;45843;47.532;18.660;2023-04-10T07:50:56;0.13;;;0.13;;
59984;SDS011;45843;47.532;18.660;2023-04-10T07:53:23;0.10;;;0.10;;
59984;SDS011;45843;47.532;18.660;2023-04-10T07:56:29;0.20;;;0.20;;
59984;SDS011;45843;47.532;18.660;2023-04-10T07:58:58;0.20;;;0.20;;
59984;SDS011;45843;47.532;18.660;2023-04-10T08:01:25;0.10;;;0.10;;
59984;SDS011;45843;47.532;18.660;2023-04-10T08:03:53;0.10;;;0.10;;
59984;SDS011;45843;47.532;18.660;2023-04-10T08:06:20;0.10;;;0.10;;
59984;SDS011;45843;47.532;18.660;2023-04-10T08:08:47;0.00;;;0.00;;
59984;SDS011;45843;47.532;18.660;2023-04-10T08:11:53;0.10;;;0.10;;
59984;SDS011;45843;47.532;18.660;2023-04-10T08:14:59;0.10;;;0.10;;
59984;SDS011;45843;47.532;18.660;2023-04-10T08:18:05;0.00;;;0.00;;
59984;SDS011;45843;47.532;18.660;2023-04-10T08:21:11;0.00;;;0.00;;
59984;SDS011;45843;47.532;18.660;2023-04-10T08:24:18;0.00;;;0.00;;
59984;SDS011;45843;47.532;18.660;2023-04-10T08:27:24;0.10;;;0.10;;
59984;SDS011;45843;47.532;18.660;2023-04-10T08:30:29;0.10;;;0.10;;
59984;SDS011;45843;47.532;18.660;2023-04-10T08:33:35;0.10;;;0.10;;
59984;SDS011;45843;47.532;18.660;2023-04-10T08:36:41;0.10;;;0.10;;
59984;SDS011;45843;47.532;18.660;2023-04-10T08:39:48;0.10;;;0.10;;
59984;SDS011;45843;47.532;18.660;2023-04-10T08:42:53;0.00;;;0.00;;
59984;SDS011;45843;47.532;18.660;2023-04-10T08:45:19;0.08;;;0.08;;
59984;SDS011;45843;47.532;18.660;2023-04-10T08:47:46;0.00;;;0.00;;
59984;SDS011;45843;47.532;18.660;2023-04-10T08:50:13;0.10;;;0.10;;
59984;SDS011;45843;47.532;18.660;2023-04-10T08:53:19;0.10;;;0.10;;
59984;SDS011;45843;47.532;18.660;2023-04-10T08:55:50;0.00;;;0.00;;
59984;SDS011;45843;47.532;18.660;2023-04-10T08:58:16;0.00;;;0.00;;
59984;SDS011;45843;47.532;18.660;2023-04-10T09:00:42;0.10;;;0.10;;
59984;SDS011;45843;47.532;18.660;2023-04-10T09:03:09;0.10;;;0.10;;
59984;SDS011;45843;47.532;18.660;2023-04-10T09:05:38;0.10;;;0.10;;
59984;SDS011;45843;47.532;18.660;2023-04-10T09:08:07;0.00;;;0.00;;
59984;SDS011;45843;47.532;18.660;2023-04-10T09:10:35;0.10;;;0.10;;
59984;SDS011;45843;47.532;18.660;2023-04-10T09:13:01;0.10;;;0.10;;
59984;SDS011;45843;47.532;18.660;2023-04-10T09:15:28;0.10;;;0.10;;
59984;SDS011;45843;47.532;18.660;2023-04-10T09:20:23;0.00;;;0.00;;
59984;SDS011;45843;47.532;18.660;2023-04-10T09:23:28;0.00;;;0.00;;
59984;SDS011;45843;47.532;18.660;2023-04-10T09:26:34;0.08;;;0.08;;
59984;SDS011;45843;47.532;18.660;2023-04-10T09:35:22;0.10;;;0.10;;
59984;SDS011;45843;47.532;18.660;2023-04-10T09:37:49;0.00;;;0.00;;
59984;SDS011;45843;47.532;18.660;2023-04-10T09:40:23;0.00;;;0.00;;
59984;SDS011;45843;47.532;18.660;2023-04-10T09:42:50;0.00;;;0.00;;
59984;SDS011;45843;47.532;18.660;2023-04-10T09:45:16;0.00;;;0.00;;
59984;SDS011;45843;47.532;18.660;2023-04-10T09:48:03;0.00;;;0.00;;
59984;SDS011;45843;47.532;18.660;2023-04-10T09:50:33;0.00;;;0.00;;
59984;SDS011;45843;47.532;18.660;2023-04-10T09:53:48;0.00;;;0.00;;
59984;SDS011;45843;47.532;18.660;2023-04-10T09:56:15;0.00;;;0.00;;
59984;SDS011;45843;47.532;18.660;2023-04-10T09:58:42;0.00;;;0.00;;
59984;SDS011;45843;47.532;18.660;2023-04-10T10:01:09;0.00;;;0.00;;
59984;SDS011;45843;47.532;18.660;2023-04-10T10:03:37;0.00;;;0.00;;
59984;SDS011;45843;47.532;18.660;2023-04-10T10:06:04;0.00;;;0.00;;
59984;SDS011;45843;47.532;18.660;2023-04-10T10:08:30;0.10;;;0.10;;
59984;SDS011;45843;47.532;18.660;2023-04-10T10:10:58;0.10;;;0.10;;
59984;SDS011;45843;47.532;18.660;2023-04-10T10:13:32;0.00;;;0.00;;
59984;SDS011;45843;47.532;18.660;2023-04-10T10:16:08;0.00;;;0.00;;
59984;SDS011;45843;47.532;18.660;2023-04-10T10:21:03;0.00;;;0.00;;
59984;SDS011;45843;47.532;18.660;2023-04-10T10:23:30;0.08;;;0.08;;
59984;SDS011;45843;47.532;18.660;2023-04-10T10:25:59;0.00;;;0.00;;
59984;SDS011;45843;47.532;18.660;2023-04-10T10:28:26;0.00;;;0.00;;
59984;SDS011;45843;47.532;18.660;2023-04-10T10:30:53;0.00;;;0.00;;
59984;SDS011;45843;47.532;18.660;2023-04-10T10:33:20;0.10;;;0.10;;
59984;SDS011;45843;47.532;18.660;2023-04-10T10:35:47;0.08;;;0.08;;
59984;SDS011;45843;47.532;18.660;2023-04-10T10:38:14;0.10;;;0.10;;
59984;SDS011;45843;47.532;18.660;2023-04-10T10:41:04;0.03;;;0.03;;
59984;SDS011;45843;47.532;18.660;2023-04-10T10:48:27;0.00;;;0.00;;
59984;SDS011;45843;47.532;18.660;2023-04-10T10:50:54;0.00;;;0.00;;
59984;SDS011;45843;47.532;18.660;2023-04-10T10:53:32;0.10;;;0.10;;
59984;SDS011;45843;47.532;18.660;2023-04-10T10:56:05;0.10;;;0.10;;
59984;SDS011;45843;47.532;18.660;2023-04-10T10:58:49;0.10;;;0.10;;
59984;SDS011;45843;47.532;18.660;2023-04-10T11:01:16;0.00;;;0.00;;
59984;SDS011;45843;47.532;18.660;2023-04-10T11:03:43;0.10;;;0.10;;
59984;SDS011;45843;47.532;18.660;2023-04-10T11:06:20;0.00;;;0.00;;
59984;SDS011;45843;47.532;18.660;2023-04-10T11:09:42;0.00;;;0.00;;
59984;SDS011;45843;47.532;18.660;2023-04-10T11:12:02;0.00;;;0.00;;
59984;SDS011;45843;47.532;18.660;2023-04-10T11:14:32;0.00;;;0.00;;
59984;SDS011;45843;47.532;18.660;2023-04-10T11:16:58;0.10;;;0.10;;
59984;SDS011;45843;47.532;18.660;2023-04-10T11:19:25;0.00;;;0.00;;
59984;SDS011;45843;47.532;18.660;2023-04-10T11:22:11;0.00;;;0.00;;
59984;SDS011;45843;47.532;18.660;2023-04-10T11:25:17;0.10;;;0.10;;
59984;SDS011;45843;47.532;18.660;2023-04-10T11:27:45;0.10;;;0.10;;
59984;SDS011;45843;47.532;18.660;2023-04-10T11:30:29;0.10;;;0.10;;
59984;SDS011;45843;47.532;18.660;2023-04-10T11:32:56;0.08;;;0.08;;
59984;SDS011;45843;47.532;18.660;2023-04-10T11:35:24;0.10;;;0.10;;
59984;SDS011;45843;47.532;18.660;2023-04-10T11:37:51;0.10;;;0.10;;
59984;SDS011;45843;47.532;18.660;2023-04-10T11:41:01;0.10;;;0.10;;
59984;SDS011;45843;47.532;18.660;2023-04-10T11:44:08;0.00;;;0.00;;
59984;SDS011;45843;47.532;18.660;2023-04-10T11:47:13;0.10;;;0.10;;
59984;SDS011;45843;47.532;18.660;2023-04-10T11:49:40;0.00;;;0.00;;
59984;SDS011;45843;47.532;18.660;2023-04-10T11:52:48;0.10;;;0.10;;
59984;SDS011;45843;47.532;18.660;2023-04-10T11:55:37;0.00;;;0.00;;
59984;SDS011;45843;47.532;18.660;2023-04-10T11:58:20;0.00;;;0.00;;
59984;SDS011;45843;47.532;18.660;2023-04-10T12:00:54;0.10;;;0.10;;
59984;SDS011;45843;47.532;18.660;2023-04-10T12:03:30;0.10;;;0.10;;
59984;SDS011;45843;47.532;18.660;2023-04-10T12:05:57;0.08;;;0.08;;
59984;SDS011;45843;47.532;18.660;2023-04-10T12:08:31;0.00;;;0.00;;
59984;SDS011;45843;47.532;18.660;2023-04-10T12:10:57;0.00;;;0.00;;
59984;SDS011;45843;47.532;18.660;2023-04-10T12:14:03;0.20;;;0.20;;
59984;SDS011;45843;47.532;18.660;2023-04-10T12:17:10;0.00;;;0.00;;
59984;SDS011;45843;47.532;18.660;2023-04-10T12:19:37;0.00;;;0.00;;
59984;SDS011;45843;47.532;18.660;2023-04-10T12:22:04;0.10;;;0.10;;
59984;SDS011;45843;47.532;18.660;2023-04-10T12:25:11;0.08;;;0.08;;
59984;SDS011;45843;47.532;18.660;2023-04-10T12:28:20;0.00;;;0.00;;
59984;SDS011;45843;47.532;18.660;2023-04-10T12:30:50;0.10;;;0.10;;
59984;SDS011;45843;47.532;18.660;2023-04-10T12:33:24;0.00;;;0.00;;
59984;SDS011;45843;47.532;18.660;2023-04-10T12:35:50;0.03;;;0.03;;
59984;SDS011;45843;47.532;18.660;2023-04-10T12:38:55;0.00;;;0.00;;
59984;SDS011;45843;47.532;18.660;2023-04-10T12:44:57;0.03;;;0.03;;
59984;SDS011;45843;47.532;18.660;2023-04-10T12:48:03;0.10;;;0.10;;
59984;SDS011;45843;47.532;18.660;2023-04-10T12:51:09;0.00;;;0.00;;
59984;SDS011;45843;47.532;18.660;2023-04-10T12:54:25;0.00;;;0.00;;
59984;SDS011;45843;47.532;18.660;2023-04-10T12:56:52;0.00;;;0.00;;
59984;SDS011;45843;47.532;18.660;2023-04-10T12:59:19;0.00;;;0.00;;
59984;SDS011;45843;47.532;18.660;2023-04-10T13:01:45;0.03;;;0.03;;
59984;SDS011;45843;47.532;18.660;2023-04-10T13:04:11;0.00;;;0.00;;
59984;SDS011;45843;47.532;18.660;2023-04-10T13:07:17;0.00;;;0.00;;
59984;SDS011;45843;47.532;18.660;2023-04-10T13:10:24;0.00;;;0.00;;
59984;SDS011;45843;47.532;18.660;2023-04-10T13:13:30;0.10;;;0.10;;
59984;SDS011;45843;47.532;18.660;2023-04-10T13:15:57;0.00;;;0.00;;
59984;SDS011;45843;47.532;18.660;2023-04-10T13:18:24;0.00;;;0.00;;
59984;SDS011;45843;47.532;18.660;2023-04-10T13:20:53;0.00;;;0.00;;
59984;SDS011;45843;47.532;18.660;2023-04-10T13:23:23;0.00;;;0.00;;
59984;SDS011;45843;47.532;18.660;2023-04-10T13:25:50;0.00;;;0.00;;
59984;SDS011;45843;47.532;18.660;2023-04-10T13:28:17;0.00;;;0.00;;
59984;SDS011;45843;47.532;18.660;2023-04-10T13:30:45;0.10;;;0.10;;
59984;SDS011;45843;47.532;18.660;2023-04-10T13:33:12;0.00;;;0.00;;
59984;SDS011;45843;47.532;18.660;2023-04-10T13:36:18;0.00;;;0.00;;
59984;SDS011;45843;47.532;18.660;2023-04-10T13:39:25;0.00;;;0.00;;
59984;SDS011;45843;47.532;18.660;2023-04-10T13:42:32;0.10;;;0.10;;
59984;SDS011;45843;47.532;18.660;2023-04-10T13:45:38;0.00;;;0.00;;
59984;SDS011;45843;47.532;18.660;2023-04-10T13:48:44;0.00;;;0.00;;
59984;SDS011;45843;47.532;18.660;2023-04-10T13:51:51;0.10;;;0.10;;
59984;SDS011;45843;47.532;18.660;2023-04-10T13:54:57;0.00;;;0.00;;
59984;SDS011;45843;47.532;18.660;2023-04-10T13:57:23;0.00;;;0.00;;
59984;SDS011;45843;47.532;18.660;2023-04-10T13:59:50;0.00;;;0.00;;
59984;SDS011;45843;47.532;18.660;2023-04-10T14:02:16;0.10;;;0.10;;
59984;SDS011;45843;47.532;18.660;2023-04-10T14:04:43;0.00;;;0.00;;
59984;SDS011;45843;47.532;18.660;2023-04-10T14:07:10;0.00;;;0.00;;
59984;SDS011;45843;47.532;18.660;2023-04-10T14:09:37;0.05;;;0.05;;
59984;SDS011;45843;47.532;18.660;2023-04-10T14:12:43;0.00;;;0.00;;
59984;SDS011;45843;47.532;18.660;2023-04-10T14:15:49;0.00;;;0.00;;
59984;SDS011;45843;47.532;18.660;2023-04-10T14:18:18;0.08;;;0.08;;
59984;SDS011;45843;47.532;18.660;2023-04-10T14:20:45;0.00;;;0.00;;
59984;SDS011;45843;47.532;18.660;2023-04-10T14:23:11;0.10;;;0.10;;
59984;SDS011;45843;47.532;18.660;2023-04-10T14:26:21;0.00;;;0.00;;
59984;SDS011;45843;47.532;18.660;2023-04-10T14:29:24;0.15;;;0.15;;
59984;SDS011;45843;47.532;18.660;2023-04-10T14:32:30;0.00;;;0.00;;
59984;SDS011;45843;47.532;18.660;2023-04-10T14:35:36;0.00;;;0.00;;
59984;SDS011;45843;47.532;18.660;2023-04-10T14:38:43;0.00;;;0.00;;
59984;SDS011;45843;47.532;18.660;2023-04-10T14:41:49;0.10;;;0.10;;
59984;SDS011;45843;47.532;18.660;2023-04-10T14:44:55;0.00;;;0.00;;
59984;SDS011;45843;47.532;18.660;2023-04-10T14:48:01;0.00;;;0.00;;
59984;SDS011;45843;47.532;18.660;2023-04-10T14:51:08;0.00;;;0.00;;
59984;SDS011;45843;47.532;18.660;2023-04-10T14:53:37;0.00;;;0.00;;
59984;SDS011;45843;47.532;18.660;2023-04-10T14:56:10;0.03;;;0.03;;
59984;SDS011;45843;47.532;18.660;2023-04-10T14:58:37;0.10;;;0.10;;
59984;SDS011;45843;47.532;18.660;2023-04-10T15:01:07;0.00;;;0.00;;
59984;SDS011;45843;47.532;18.660;2023-04-10T15:04:13;0.00;;;0.00;;
59984;SDS011;45843;47.532;18.660;2023-04-10T15:07:19;0.00;;;0.00;;
59984;SDS011;45843;47.532;18.660;2023-04-10T15:10:24;0.00;;;0.00;;
59984;SDS011;45843;47.532;18.660;2023-04-10T15:12:50;0.00;;;0.00;;
59984;SDS011;45843;47.532;18.660;2023-04-10T15:15:17;0.00;;;0.00;;
59984;SDS011;45843;47.532;18.660;2023-04-10T15:17:43;0.00;;;0.00;;
59984;SDS011;45843;47.532;18.660;2023-04-10T15:20:10;0.10;;;0.10;;
59984;SDS011;45843;47.532;18.660;2023-04-10T15:22:36;0.00;;;0.00;;
59984;SDS011;45843;47.532;18.660;2023-04-10T15:25:03;0.00;;;0.00;;
59984;SDS011;45843;47.532;18.660;2023-04-10T15:27:30;0.17;;;0.10;;
59984;SDS011;45843;47.532;18.660;2023-04-10T15:29:56;0.00;;;0.00;;
59984;SDS011;45843;47.532;18.660;2023-04-10T15:32:24;0.00;;;0.00;;
59984;SDS011;45843;47.532;18.660;2023-04-10T15:34:50;0.00;;;0.00;;
59984;SDS011;45843;47.532;18.660;2023-04-10T15:37:17;0.00;;;0.00;;
59984;SDS011;45843;47.532;18.660;2023-04-10T15:39:43;0.00;;;0.00;;
59984;SDS011;45843;47.532;18.660;2023-04-10T15:42:10;0.00;;;0.00;;
59984;SDS011;45843;47.532;18.660;2023-04-10T15:44:36;0.03;;;0.03;;
59984;SDS011;45843;47.532;18.660;2023-04-10T15:47:02;0.00;;;0.00;;
59984;SDS011;45843;47.532;18.660;2023-04-10T15:49:32;0.00;;;0.00;;
59984;SDS011;45843;47.532;18.660;2023-04-10T15:52:38;0.00;;;0.00;;
59984;SDS011;45843;47.532;18.660;2023-04-10T15:55:28;0.00;;;0.00;;
59984;SDS011;45843;47.532;18.660;2023-04-10T15:57:55;0.10;;;0.10;;
59984;SDS011;45843;47.532;18.660;2023-04-10T16:00:21;0.00;;;0.00;;
59984;SDS011;45843;47.532;18.660;2023-04-10T16:02:48;0.00;;;0.00;;
59984;SDS011;45843;47.532;18.660;2023-04-10T16:05:14;0.00;;;0.00;;
59984;SDS011;45843;47.532;18.660;2023-04-10T16:07:41;0.00;;;0.00;;
59984;SDS011;45843;47.532;18.660;2023-04-10T16:10:08;0.00;;;0.00;;
59984;SDS011;45843;47.532;18.660;2023-04-10T16:12:34;0.00;;;0.00;;
59984;SDS011;45843;47.532;18.660;2023-04-10T16:15:01;0.00;;;0.00;;
59984;SDS011;45843;47.532;18.660;2023-04-10T16:17:29;0.00;;;0.00;;
59984;SDS011;45843;47.532;18.660;2023-04-10T16:19:55;0.00;;;0.00;;
59984;SDS011;45843;47.532;18.660;2023-04-10T16:22:21;0.00;;;0.00;;
59984;SDS011;45843;47.532;18.660;2023-04-10T16:24:48;0.00;;;0.00;;
59984;SDS011;45843;47.532;18.660;2023-04-10T16:27:15;0.10;;;0.10;;
59984;SDS011;45843;47.532;18.660;2023-04-10T16:29:42;0.00;;;0.00;;
59984;SDS011;45843;47.532;18.660;2023-04-10T16:32:08;0.00;;;0.00;;
59984;SDS011;45843;47.532;18.660;2023-04-10T16:34:35;0.00;;;0.00;;
59984;SDS011;45843;47.532;18.660;2023-04-10T16:37:41;0.00;;;0.00;;
59984;SDS011;45843;47.532;18.660;2023-04-10T16:40:47;0.10;;;0.10;;
59984;SDS011;45843;47.532;18.660;2023-04-10T16:43:54;0.00;;;0.00;;
59984;SDS011;45843;47.532;18.660;2023-04-10T16:47:00;0.00;;;0.00;;
59984;SDS011;45843;47.532;18.660;2023-04-10T16:50:06;0.10;;;0.10;;
59984;SDS011;45843;47.532;18.660;2023-04-10T16:53:12;0.00;;;0.00;;